Time;durP1;ratioP1;P1;durP2;ratioP2;P2;SDS_P1;SDS_P2;PMS_P1;PMS_P2;Temp;Humidity;BMP_temperature;BMP_pressure;BME280_temperature;BME280_humidity;BME280_pressure;Samples;Min_cycle;Max_cycle;Signal;HPM_P1;HPM_P2
2024/04/14 00:00:51;;;;;;;13.85;8.50;;;;;;;13.59;72.50;100049.81;5337380;26;20003;-96
2024/04/14 00:03:17;;;;;;;12.77;8.52;;;;;;;13.56;72.46;100053.88;5338925;26;20000;-95
2024/04/14 00:05:44;;;;;;;12.65;7.97;;;;;;;13.67;72.40;100068.22;5366716;26;20291;-96
2024/04/14 00:08:10;;;;;;;18.58;8.88;;;;;;;13.68;72.50;100069.84;5365447;26;19996;-94
2024/04/14 00:10:36;;;;;;;12.73;8.70;;;;;;;13.57;72.54;100046.56;5366957;26;20006;-95
2024/04/14 00:13:01;;;;;;;14.68;7.93;;;;;;;13.53;72.43;100039.00;5366111;26;20000;-95
2024/04/14 00:15:28;;;;;;;17.70;8.63;;;;;;;13.60;72.36;100052.25;5365874;26;20006;-94
2024/04/14 00:17:53;;;;;;;15.30;8.65;;;;;;;13.62;72.60;100049.28;5395738;26;19999;-94
2024/04/14 00:20:19;;;;;;;15.52;8.50;;;;;;;13.66;72.10;100055.78;5338750;26;20002;-95
2024/04/14 00:22:45;;;;;;;14.13;8.88;;;;;;;13.65;72.58;100060.34;5367052;26;19999;-95
2024/04/14 00:25:12;;;;;;;14.23;8.15;;;;;;;13.63;72.87;100054.41;5338801;26;19996;-94
2024/04/14 00:27:37;;;;;;;14.15;8.98;;;;;;;13.63;72.53;100069.81;5366222;26;20011;-94
2024/04/14 00:30:03;;;;;;;13.15;8.35;;;;;;;13.65;72.51;100065.75;5336939;26;20023;-94
2024/04/14 00:32:29;;;;;;;13.13;9.07;;;;;;;13.67;72.47;100063.59;5337720;26;20353;-93
2024/04/14 00:34:56;;;;;;;15.57;9.10;;;;;;;13.62;72.56;100050.09;5365315;26;19987;-93
2024/04/14 00:37:22;;;;;;;17.58;8.25;;;;;;;13.54;72.50;100064.16;5337416;26;20049;-94
2024/04/14 00:39:47;;;;;;;15.20;8.63;;;;;;;13.50;72.06;100046.84;5336218;26;20297;-94
2024/04/14 00:42:14;;;;;;;14.05;8.63;;;;;;;13.45;72.55;100044.16;5336873;26;20031;-94
2024/04/14 00:44:42;;;;;;;10.90;7.97;;;;;;;13.56;72.99;100059.28;5423907;26;20000;-94
2024/04/14 00:47:08;;;;;;;9.63;7.70;;;;;;;13.57;72.55;100069.00;5337241;26;20006;-94
2024/04/14 00:49:35;;;;;;;10.88;7.30;;;;;;;13.43;72.55;100046.31;5395004;26;20012;-95
2024/04/14 00:52:03;;;;;;;13.48;6.95;;;;;;;13.32;72.55;100043.59;5337109;26;20015;-96
2024/04/14 00:54:33;;;;;;;10.85;7.78;;;;;;;13.29;72.65;100043.31;5337504;26;19992;-95
2024/04/14 00:57:00;;;;;;;15.27;7.53;;;;;;;13.26;73.03;100050.06;5393517;26;20031;-96
2024/04/14 00:59:26;;;;;;;11.55;8.00;;;;;;;13.29;72.53;100054.94;5336268;26;20343;-96
2024/04/14 01:01:54;;;;;;;12.48;7.10;;;;;;;13.31;72.71;100057.41;5365249;26;19996;-96
2024/04/14 01:04:19;;;;;;;11.88;7.88;;;;;;;13.21;72.77;100041.13;5338022;26;19995;-95
2024/04/14 01:06:48;;;;;;;20.13;7.97;;;;;;;13.33;72.14;100047.91;5365458;26;20000;-95
2024/04/14 01:09:14;;;;;;;8.63;7.20;;;;;;;13.23;72.94;100041.66;5338271;26;19999;-94
2024/04/14 01:11:57;;;;;;;14.35;7.43;;;;;;;13.29;72.34;100054.94;5369246;26;20083;-96
2024/04/14 01:14:23;;;;;;;11.30;7.15;;;;;;;13.49;72.46;100058.75;5393619;26;20286;-94
2024/04/14 01:16:49;;;;;;;10.13;7.60;;;;;;;13.46;71.82;100041.16;5394056;26;19999;-94
2024/04/14 01:19:18;;;;;;;13.48;7.95;;;;;;;13.54;72.30;100054.13;5393477;26;19999;-94
2024/04/14 01:21:43;;;;;;;15.60;7.95;;;;;;;13.52;72.39;100055.50;5335815;26;20003;-94
2024/04/14 01:24:11;;;;;;;15.75;9.10;;;;;;;13.38;72.75;100040.88;5365350;26;19996;-95
2024/04/14 01:26:37;;;;;;;10.68;7.38;;;;;;;13.23;72.61;100028.16;5364795;26;20345;-95
2024/04/14 01:29:02;;;;;;;9.68;7.03;;;;;;;13.22;72.68;100045.44;5334625;26;19996;-96
2024/04/14 01:31:29;;;;;;;9.70;7.15;;;;;;;13.21;72.95;100035.72;5335543;26;19996;-95
2024/04/14 01:33:56;;;;;;;12.30;6.85;;;;;;;13.26;73.42;100058.19;5334389;26;20006;-94
2024/04/14 01:36:22;;;;;;;14.02;7.53;;;;;;;13.02;73.59;100021.91;5362921;26;20002;-94
2024/04/14 01:38:48;;;;;;;11.77;7.38;;;;;;;13.11;73.41;100036.50;5364687;26;19995;-94
2024/04/14 01:41:14;;;;;;;12.45;7.60;;;;;;;13.29;73.25;100057.66;5335491;26;20444;-95
2024/04/14 01:43:40;;;;;;;14.07;7.25;;;;;;;13.16;73.26;100039.22;5334588;26;20002;-93
2024/04/14 01:46:07;;;;;;;11.55;7.05;;;;;;;13.21;73.05;100038.41;5392410;26;20064;-94
2024/04/14 01:48:32;;;;;;;10.55;6.85;;;;;;;13.07;73.35;100028.16;5364675;26;19996;-95
2024/04/14 01:50:59;;;;;;;10.10;7.78;;;;;;;13.17;73.20;100040.03;5335593;26;19998;-94
2024/04/14 01:53:25;;;;;;;12.57;7.93;;;;;;;13.08;73.43;100024.34;5334118;26;20020;-94
2024/04/14 01:55:50;;;;;;;15.65;6.95;;;;;;;13.14;73.04;100031.38;5364827;26;20007;-94
2024/04/14 01:58:18;;;;;;;11.07;6.93;;;;;;;13.13;73.17;100042.47;5336255;26;20371;-94
2024/04/14 02:00:45;;;;;;;8.43;7.22;;;;;;;12.97;72.97;100028.13;5363531;26;19992;-93
2024/04/14 02:03:11;;;;;;;11.32;6.82;;;;;;;12.96;73.50;100048.13;5335482;26;19992;-94
2024/04/14 02:05:44;;;;;;;11.68;7.43;;;;;;;12.83;74.06;100038.63;5392370;26;19991;-93
2024/04/14 02:08:15;;;;;;;9.55;6.65;;;;;;;12.81;74.26;100048.09;5391981;26;20444;-94
2024/04/14 02:10:41;;;;;;;9.75;7.60;;;;;;;12.83;74.05;100044.03;5363691;26;19995;-93
2024/04/14 02:13:08;;;;;;;8.25;6.43;;;;;;;12.91;73.75;100048.94;5323232;26;19996;-94
2024/04/14 02:15:38;;;;;;;9.45;7.63;;;;;;;12.97;73.65;100059.72;5357399;26;20008;-94
2024/04/14 02:18:05;;;;;;;12.27;7.68;;;;;;;12.77;73.96;100034.28;5329011;26;19996;-94
2024/04/14 02:20:32;;;;;;;13.32;8.57;;;;;;;12.73;74.60;100047.53;5301066;26;20000;-94
2024/04/14 02:22:58;;;;;;;15.10;8.98;;;;;;;12.79;74.41;100042.94;5300175;26;19999;-93
2024/04/14 02:25:24;;;;;;;12.05;9.00;;;;;;;12.74;74.39;100035.66;5299543;26;20000;-94
2024/04/14 02:27:53;;;;;;;19.35;10.45;;;;;;;12.86;74.67;100065.13;5299496;26;20015;-96
2024/04/14 02:30:19;;;;;;;17.90;10.02;;;;;;;12.74;74.26;100053.72;5329567;26;19993;-94
2024/04/14 02:32:48;;;;;;;19.25;11.13;;;;;;;12.81;74.35;100051.59;5329092;26;20007;-94
2024/04/14 02:35:17;;;;;;;18.27;10.13;;;;;;;12.82;74.38;100064.03;5298227;26;20001;-95
2024/04/14 02:37:44;;;;;;;19.55;10.45;;;;;;;12.96;74.00;100066.22;5390549;26;20004;-95
2024/04/14 02:40:10;;;;;;;21.00;11.80;;;;;;;12.92;74.13;100058.63;5329864;26;20052;-95
2024/04/14 02:42:37;;;;;;;20.33;11.27;;;;;;;12.83;74.17;100045.94;5329815;26;20000;-94
2024/04/14 02:45:06;;;;;;;19.25;11.32;;;;;;;12.98;74.13;100073.00;5328623;26;20015;-94
2024/04/14 02:47:32;;;;;;;17.58;10.38;;;;;;;12.89;74.14;100059.19;5301209;26;19993;-95
2024/04/14 02:49:58;;;;;;;17.15;10.23;;;;;;;12.94;74.40;100083.50;5328045;26;19992;-94
2024/04/14 02:52:24;;;;;;;19.65;10.98;;;;;;;12.81;74.51;100067.00;5328309;26;19996;-95
2024/04/14 02:54:49;;;;;;;16.15;10.43;;;;;;;12.79;74.73;100067.28;5328734;26;19996;-94
2024/04/14 02:57:16;;;;;;;16.05;10.68;;;;;;;12.66;74.68;100049.69;5327686;26;20007;-93
2024/04/14 02:59:43;;;;;;;13.82;9.02;;;;;;;12.73;74.83;100066.44;5300191;26;20001;-94
2024/04/14 03:02:11;;;;;;;17.10;9.57;;;;;;;12.70;74.81;100069.69;5300488;26;20002;-95
2024/04/14 03:04:37;;;;;;;15.38;8.88;;;;;;;12.62;75.06;100059.38;5300201;26;19996;-95
2024/04/14 03:07:04;;;;;;;12.35;8.18;;;;;;;12.54;74.93;100054.50;5300116;26;20003;-94
2024/04/14 03:09:34;;;;;;;10.57;8.00;;;;;;;12.47;75.39;100057.44;5356588;26;19997;-94
2024/04/14 03:12:02;;;;;;;15.25;9.05;;;;;;;12.43;75.38;100042.84;5327713;26;20042;-94
2024/04/14 03:14:29;;;;;;;12.18;8.63;;;;;;;12.58;74.31;100052.88;5357362;26;20046;-94
2024/04/14 03:16:55;;;;;;;13.48;8.73;;;;;;;12.65;74.68;100061.53;5335726;26;19992;-94
2024/04/14 03:19:20;;;;;;;13.65;8.70;;;;;;;12.81;75.01;100088.63;5333565;26;20026;-93
2024/04/14 03:21:48;;;;;;;13.20;9.30;;;;;;;12.66;75.07;100065.88;5364419;26;19995;-94
2024/04/14 03:24:13;;;;;;;16.30;9.13;;;;;;;12.59;75.19;100059.91;5366499;26;20494;-95
2024/04/14 03:26:39;;;;;;;14.57;9.30;;;;;;;12.72;75.10;100077.50;5368834;26;20012;-95
2024/04/14 03:29:06;;;;;;;15.20;9.55;;;;;;;12.64;75.21;100072.63;5336738;26;19992;-94
2024/04/14 03:31:33;;;;;;;13.68;9.30;;;;;;;12.54;75.41;100081.50;5366055;26;20003;-94
2024/04/14 03:33:59;;;;;;;14.13;9.50;;;;;;;12.52;75.19;100084.47;5394358;26;20003;-95
2024/04/14 03:36:25;;;;;;;14.65;9.35;;;;;;;12.47;75.18;100070.13;5337838;26;20313;-95
2024/04/14 03:38:54;;;;;;;15.80;9.25;;;;;;;12.56;75.48;100092.06;5394532;26;20032;-94
2024/04/14 03:41:24;;;;;;;11.52;8.13;;;;;;;12.39;75.24;100076.03;5337473;26;20084;-94
2024/04/14 03:43:50;;;;;;;18.23;8.50;;;;;;;12.40;75.43;100088.47;5395370;26;20007;-95
2024/04/14 03:46:24;;;;;;;18.73;9.77;;;;;;;12.35;75.81;100100.06;5338485;26;20419;-94
2024/04/14 03:48:52;;;;;;;14.40;9.68;;;;;;;12.30;76.01;100103.53;5370831;26;20544;-94
2024/04/14 03:51:20;;;;;;;11.38;8.70;;;;;;;12.30;75.98;100108.13;5367481;26;19994;-95
2024/04/14 03:53:49;;;;;;;17.70;9.32;;;;;;;12.31;75.93;100099.75;5366046;26;19980;-94
2024/04/14 03:56:17;;;;;;;14.40;10.30;;;;;;;12.10;76.16;100079.13;5423262;26;20434;-94
2024/04/14 03:58:44;;;;;;;13.88;9.90;;;;;;;12.14;76.22;100091.03;5368818;26;20015;-96
2024/04/14 04:01:12;;;;;;;18.30;10.80;;;;;;;12.08;76.58;100083.97;5395091;26;20430;-94
2024/04/14 04:03:38;;;;;;;17.88;11.75;;;;;;;12.07;76.25;100083.13;5395793;26;20007;-94
2024/04/14 04:06:04;;;;;;;17.67;10.82;;;;;;;12.05;76.60;100082.59;5336454;26;20310;-93
2024/04/14 04:08:32;;;;;;;16.73;10.18;;;;;;;12.16;76.17;100074.56;5366769;26;20333;-93
2024/04/14 04:10:59;;;;;;;18.50;10.35;;;;;;;12.32;75.58;100093.28;5339728;26;19995;-96
2024/04/14 04:13:26;;;;;;;21.70;10.70;;;;;;;12.37;76.17;100106.00;5335680;26;20062;-95
2024/04/14 04:16:20;;;;;;;17.10;11.60;;;;;;;12.36;76.16;100090.06;5336828;26;19995;-95
2024/04/14 04:18:46;;;;;;;18.65;12.20;;;;;;;12.36;75.46;100073.84;5335091;26;20397;-94
2024/04/14 04:21:14;;;;;;;23.00;12.80;;;;;;;12.53;75.27;100082.56;5358672;26;19996;-94
2024/04/14 04:23:42;;;;;;;19.17;11.90;;;;;;;12.74;75.21;100111.31;5357882;26;19993;-94
2024/04/14 04:26:07;;;;;;;20.92;13.02;;;;;;;12.64;75.54;100097.75;5329669;26;19996;-93
2024/04/14 04:28:34;;;;;;;26.30;15.77;;;;;;;12.54;75.08;100078.81;5301062;26;19995;-95
2024/04/14 04:31:12;;;;;;;24.48;15.43;;;;;;;12.71;75.02;100108.31;5328118;26;20046;-95
2024/04/14 04:33:42;;;;;;;22.42;15.88;;;;;;;12.86;74.59;100121.06;5329904;26;20062;-95
2024/04/14 04:36:13;;;;;;;21.65;12.82;;;;;;;12.78;74.38;100098.06;5359616;26;19996;-94
2024/04/14 04:38:42;;;;;;;17.98;12.15;;;;;;;13.02;74.29;100128.16;5303996;26;20000;-94
2024/04/14 04:41:10;;;;;;;24.42;15.20;;;;;;;12.98;73.57;100101.91;5330582;26;20046;-95
2024/04/14 04:43:38;;;;;;;32.53;18.77;;;;;;;13.22;73.07;100115.75;5329968;26;20038;-94
2024/04/14 04:46:04;;;;;;;36.47;20.85;;;;;;;13.22;72.36;100094.13;5300458;26;20065;-95
2024/04/14 04:48:30;;;;;;;31.17;19.58;;;;;;;13.29;72.33;100114.44;5327621;26;19992;-95
2024/04/14 04:50:56;;;;;;;37.17;21.05;;;;;;;13.47;71.15;100110.44;5337881;26;19999;-94
2024/04/14 04:53:22;;;;;;;31.73;21.85;;;;;;;13.51;69.79;100106.09;5366685;26;19998;-94
2024/04/14 04:55:48;;;;;;;26.83;17.50;;;;;;;13.69;69.73;100126.38;5336649;26;19999;-94
2024/04/14 04:58:15;;;;;;;26.95;16.30;;;;;;;13.56;70.08;100116.09;5337090;26;20008;-94
2024/04/14 05:01:02;;;;;;;30.20;15.80;;;;;;;13.59;70.53;100125.56;5336557;26;20015;-94
2024/04/14 05:03:28;;;;;;;24.73;14.80;;;;;;;13.66;70.43;100129.63;5395021;26;19992;-94
2024/04/14 05:06:00;;;;;;;19.83;14.30;;;;;;;13.54;70.57;100121.78;5337551;26;19995;-93
2024/04/14 05:08:26;;;;;;;23.27;13.75;;;;;;;13.51;70.33;100118.81;5337112;26;19996;-95
2024/04/14 05:10:56;;;;;;;25.33;15.63;;;;;;;13.64;70.35;100129.09;5394484;26;19997;-95
2024/04/14 05:13:22;;;;;;;19.23;14.15;;;;;;;13.80;70.24;100129.09;5365801;26;20003;-95
2024/04/14 05:15:48;;;;;;;26.83;14.50;;;;;;;13.87;69.93;100138.56;5364669;26;20006;-93
2024/04/14 05:18:14;;;;;;;26.20;13.32;;;;;;;13.87;69.61;100140.47;5335708;26;19995;-94
2024/04/14 05:20:43;;;;;;;19.40;11.90;;;;;;;13.78;69.55;100115.84;5337699;26;19996;-93
2024/04/14 05:23:13;;;;;;;19.90;12.10;;;;;;;13.94;68.69;100114.75;5366882;26;19995;-94
2024/04/14 05:25:44;;;;;;;18.88;9.68;;;;;;;14.20;67.26;100133.66;5370416;26;19995;-94
2024/04/14 05:28:09;;;;;;;16.10;9.13;;;;;;;14.43;66.04;100140.38;5366088;26;20360;-92
2024/04/14 05:30:38;;;;;;;19.30;9.00;;;;;;;14.47;65.67;100137.94;5363180;26;20007;-92
2024/04/14 05:33:04;;;;;;;17.73;8.93;;;;;;;14.50;64.84;100138.19;5363235;26;20444;-93
2024/04/14 05:35:29;;;;;;;22.05;8.13;;;;;;;14.63;65.11;100136.00;5333914;26;19992;-93
2024/04/14 05:37:55;;;;;;;12.35;8.20;;;;;;;14.72;64.73;100118.91;5334818;26;20033;-93
2024/04/14 05:40:21;;;;;;;11.27;8.57;;;;;;;14.74;64.58;100132.19;5333993;26;20306;-93
2024/04/14 05:42:46;;;;;;;9.23;6.63;;;;;;;14.70;63.78;100121.09;5335705;26;19988;-96
2024/04/14 05:45:24;;;;;;;12.98;6.97;;;;;;;14.85;63.60;100116.69;5363775;26;20061;-94
2024/04/14 05:47:50;;;;;;;13.60;7.30;;;;;;;15.01;64.10;100139.94;5337280;26;20026;-94
2024/04/14 05:50:16;;;;;;;10.45;6.32;;;;;;;15.27;63.18;100148.75;5334318;26;19996;-94
2024/04/14 05:52:41;;;;;;;10.52;6.95;;;;;;;15.42;61.98;100133.44;5335010;26;19991;-94
2024/04/14 05:55:07;;;;;;;12.60;7.03;;;;;;;15.48;61.26;100116.84;5334161;26;19995;-94
2024/04/14 05:57:33;;;;;;;10.57;6.43;;;;;;;15.65;60.96;100127.31;5364122;26;19996;-94
2024/04/14 06:00:09;;;;;;;;;;;;;;;;;;;;;
2024/04/14 06:02:35;;;;;;;15.35;5.80;;;;;;;15.92;60.50;100135.00;5369054;26;20006;-93
2024/04/14 06:05:01;;;;;;;8.75;5.60;;;;;;;15.96;59.97;100116.22;5364202;26;20318;-94
2024/04/14 06:07:27;;;;;;;9.05;5.20;;;;;;;16.13;58.87;100118.50;5335911;26;20050;-94
2024/04/14 06:09:52;;;;;;;9.95;5.13;;;;;;;16.34;58.31;100149.78;5335049;26;19996;-94
2024/04/14 06:12:18;;;;;;;11.18;5.28;;;;;;;16.30;58.11;100123.50;5364809;26;20014;-93
2024/04/14 06:14:43;;;;;;;8.30;5.55;;;;;;;16.53;57.74;100136.28;5363955;26;19999;-94
2024/04/14 06:17:09;;;;;;;12.82;5.85;;;;;;;16.51;57.40;100116.72;5364211;26;20011;-95
2024/04/14 06:19:35;;;;;;;14.18;5.82;;;;;;;16.71;58.07;100129.28;5364674;26;20007;-94
2024/04/14 06:22:03;;;;;;;10.15;5.88;;;;;;;16.81;57.83;100120.22;5363507;26;20000;-94
2024/04/14 06:24:29;;;;;;;11.68;5.90;;;;;;;16.92;57.33;100126.31;5364319;26;19995;-91
2024/04/14 06:26:57;;;;;;;8.45;5.38;;;;;;;17.01;58.05;100124.56;5332079;26;20068;-93
2024/04/14 06:29:23;;;;;;;11.27;5.82;;;;;;;17.10;57.36;100120.09;5396766;26;20007;-92
2024/04/14 06:31:48;;;;;;;10.73;6.05;;;;;;;17.19;56.85;100111.28;5399122;26;20014;-94
2024/04/14 06:34:14;;;;;;;9.07;5.63;;;;;;;17.41;56.81;100130.56;5398415;26;19995;-93
2024/04/14 06:36:40;;;;;;;9.93;6.63;;;;;;;17.36;56.07;100106.09;5368321;26;20002;-95
2024/04/14 06:39:05;;;;;;;13.00;6.20;;;;;;;17.56;56.14;100127.56;5369684;26;19991;-94
2024/04/14 06:41:31;;;;;;;8.07;6.70;;;;;;;17.49;55.72;100110.81;5367183;26;20001;-94
2024/04/14 06:43:56;;;;;;;13.23;7.25;;;;;;;17.70;55.36;100116.75;5399098;26;19999;-95
2024/04/14 06:46:22;;;;;;;10.02;6.80;;;;;;;17.75;55.49;100107.66;5368062;26;20002;-94
2024/04/14 06:48:50;;;;;;;8.68;6.78;;;;;;;17.85;55.56;100104.00;5397137;26;20011;-93
2024/04/14 06:51:16;;;;;;;12.40;7.65;;;;;;;17.92;55.18;100107.94;5426939;26;20463;-94
2024/04/14 06:53:44;;;;;;;12.50;7.93;;;;;;;18.19;54.49;100114.56;5369094;26;19999;-94
2024/04/14 06:56:10;;;;;;;12.75;8.80;;;;;;;18.32;53.83;100107.50;5430925;26;20374;-94
2024/04/14 06:58:36;;;;;;;13.40;9.77;;;;;;;18.48;53.55;100099.81;5401683;26;20011;-93
2024/04/14 07:01:18;;;;;;;16.27;10.52;;;;;;;18.37;53.18;100088.31;5371477;26;20009;-94
2024/04/14 07:03:46;;;;;;;22.73;10.73;;;;;;;18.61;52.41;100093.53;5403125;26;20402;-94
2024/04/14 07:06:12;;;;;;;16.83;9.10;;;;;;;18.73;52.70;100091.13;5374029;26;19999;-93
2024/04/14 07:08:43;;;;;;;19.48;9.48;;;;;;;18.94;52.45;100112.53;5400159;26;19995;-95
2024/04/14 07:11:32;;;;;;;14.75;9.82;;;;;;;19.12;52.64;100113.53;5402284;26;20006;-96
2024/04/14 07:14:01;;;;;;;15.05;9.73;;;;;;;19.14;51.17;100094.91;5405234;26;20001;-95
2024/04/14 07:16:27;;;;;;;12.38;9.02;;;;;;;19.34;50.96;100113.56;5401937;26;19995;-95
2024/04/14 07:18:55;;;;;;;16.40;8.13;;;;;;;19.35;50.29;100087.03;5401777;26;20007;-94
2024/04/14 07:21:28;;;;;;;13.95;8.23;;;;;;;19.51;49.66;100106.63;5401667;26;20494;-95
2024/04/14 07:23:56;;;;;;;15.10;7.75;;;;;;;19.57;49.53;100087.06;5372354;26;20060;-96
2024/04/14 07:26:25;;;;;;;11.10;6.10;;;;;;;19.76;49.03;100095.06;5400657;26;19995;-95
2024/04/14 07:28:51;;;;;;;5.78;3.58;;;;;;;20.08;46.61;100109.56;5403384;26;20031;-94
2024/04/14 07:31:17;;;;;;;4.75;2.92;;;;;;;20.10;46.21;100101.84;5401704;26;20002;-95
2024/04/14 07:33:43;;;;;;;8.10;3.28;;;;;;;20.22;45.54;100101.28;5402435;26;19999;-96
2024/04/14 07:36:13;;;;;;;7.85;3.17;;;;;;;20.42;45.38;100110.84;5401942;26;19991;-95
2024/04/14 07:38:39;;;;;;;3.83;2.80;;;;;;;20.60;44.89;100122.66;5373411;26;20036;-92
2024/04/14 07:41:05;;;;;;;7.63;2.70;;;;;;;20.47;45.20;100097.00;5402327;26;20298;-96
2024/04/14 07:43:33;;;;;;;9.95;3.75;;;;;;;20.67;44.72;100114.00;5406879;26;20034;-95
2024/04/14 07:46:01;;;;;;;10.95;3.10;;;;;;;20.77;43.95;100110.97;5376988;26;19991;-94
2024/04/14 07:48:26;;;;;;;5.07;2.78;;;;;;;20.85;43.54;100112.91;5430421;26;20428;-91
2024/04/14 07:50:54;;;;;;;7.68;3.05;;;;;;;20.94;44.36;100105.53;5429450;26;19995;-94
2024/04/14 07:53:25;;;;;;;4.82;2.95;;;;;;;21.02;44.20;100092.97;5430003;26;20002;-93
2024/04/14 07:55:55;;;;;;;8.63;3.78;;;;;;;21.24;44.29;100104.91;5431029;26;19999;-94
2024/04/14 07:58:22;;;;;;;7.63;3.38;;;;;;;21.27;43.04;100096.88;5424991;26;20010;-91
2024/04/14 08:00:47;;;;;;;11.18;4.70;;;;;;;21.43;43.65;100108.16;5400167;26;20064;-91
2024/04/14 08:03:13;;;;;;;4.60;2.90;;;;;;;21.52;41.73;100108.13;5399016;26;20386;-91
2024/04/14 08:06:14;;;;;;;6.07;3.90;;;;;;;21.65;42.76;100117.34;5368559;26;19994;-93
2024/04/14 08:09:05;;;;;;;7.00;3.00;;;;;;;21.61;41.78;100097.19;5328050;26;19996;-95
2024/04/14 08:11:31;;;;;;;7.63;3.10;;;;;;;21.75;41.69;100100.56;5394839;26;19992;-95
2024/04/14 08:13:57;;;;;;;6.18;2.58;;;;;;;21.81;41.44;100102.00;5350299;26;19995;-95
2024/04/14 08:16:23;;;;;;;6.40;2.67;;;;;;;21.83;41.78;100094.25;5304269;26;19992;-93
2024/04/14 08:18:49;;;;;;;3.70;2.72;;;;;;;21.89;40.81;100092.91;5300182;26;19989;-93
2024/04/14 08:21:18;;;;;;;8.52;2.90;;;;;;;22.08;41.56;100102.69;5330870;26;20051;-94
2024/04/14 08:23:44;;;;;;;6.40;2.60;;;;;;;22.17;40.80;100096.06;5303572;26;20008;-94
2024/04/14 08:26:10;;;;;;;12.15;2.50;;;;;;;22.23;39.25;100085.75;5301745;26;19992;-93
2024/04/14 08:28:38;;;;;;;4.85;2.30;;;;;;;22.43;39.11;100097.13;5302313;26;20007;-94
2024/04/14 08:31:09;;;;;;;6.40;2.53;;;;;;;22.51;38.54;100099.00;5303378;26;20007;-94
2024/04/14 08:33:38;;;;;;;4.90;2.20;;;;;;;22.47;38.26;100078.84;5349270;26;19988;-94
2024/04/14 08:36:04;;;;;;;6.85;2.30;;;;;;;22.63;37.81;100085.38;5341103;26;19999;-94
2024/04/14 08:38:30;;;;;;;4.80;2.08;;;;;;;22.64;36.88;100069.72;5365650;26;19991;-95
2024/04/14 08:40:56;;;;;;;4.07;1.95;;;;;;;22.82;37.75;100089.63;5337569;26;20010;-95
2024/04/14 08:43:22;;;;;;;8.43;2.42;;;;;;;22.93;37.26;100094.41;5339221;26;19999;-93
2024/04/14 08:45:47;;;;;;;4.03;2.00;;;;;;;22.79;36.33;100069.16;5337455;26;20303;-95
2024/04/14 08:48:13;;;;;;;2.75;2.00;;;;;;;22.84;36.88;100085.41;5343052;26;19995;-94
2024/04/14 08:50:39;;;;;;;6.50;2.30;;;;;;;22.90;37.21;100083.28;5339863;26;19995;-95
2024/04/14 08:53:07;;;;;;;4.20;2.50;;;;;;;23.05;36.63;100092.88;5338799;26;20437;-94
2024/04/14 08:55:32;;;;;;;5.00;2.20;;;;;;;23.02;35.38;100072.41;5337323;26;20000;-96
2024/04/14 08:57:58;;;;;;;9.35;2.33;;;;;;;23.07;35.29;100072.19;5337129;26;19995;-93
2024/04/14 09:00:24;;;;;;;7.10;2.30;;;;;;;23.07;36.40;100077.69;5338807;26;19992;-94
2024/04/14 09:02:50;;;;;;;7.22;2.20;;;;;;;23.20;36.10;100073.03;5339359;26;20003;-95
2024/04/14 09:05:16;;;;;;;5.40;2.10;;;;;;;23.27;36.46;100072.53;5338271;26;20318;-94
2024/04/14 09:07:43;;;;;;;4.55;2.30;;;;;;;23.23;35.71;100068.84;5336688;26;19996;-94
2024/04/14 09:10:09;;;;;;;3.83;2.33;;;;;;;23.17;37.01;100052.53;5337945;26;19996;-95
2024/04/14 09:12:34;;;;;;;5.15;2.10;;;;;;;23.40;36.53;100065.94;5340095;26;20003;-96
2024/04/14 09:15:00;;;;;;;5.03;2.53;;;;;;;23.33;35.60;100043.69;5404223;26;20002;-95
2024/04/14 09:17:26;;;;;;;4.45;2.15;;;;;;;23.47;34.91;100041.47;5373624;26;20473;-95
2024/04/14 09:19:56;;;;;;;4.95;2.10;;;;;;;23.52;34.46;100043.97;5376426;26;20067;-95
2024/04/14 09:22:22;;;;;;;7.18;2.60;;;;;;;23.59;34.73;100063.50;5373563;26;19999;-94
2024/04/14 09:24:48;;;;;;;3.80;2.47;;;;;;;23.49;35.22;100041.09;5371545;26;20002;-95
2024/04/14 09:27:14;;;;;;;6.90;2.40;;;;;;;23.64;35.56;100048.72;5402296;26;19999;-95
2024/04/14 09:29:42;;;;;;;4.65;2.28;;;;;;;23.89;35.35;100068.84;5371952;26;20036;-96
2024/04/14 09:32:08;;;;;;;6.47;2.20;;;;;;;23.81;35.23;100045.00;5377454;26;19998;-96
2024/04/14 09:34:41;;;;;;;5.10;2.45;;;;;;;23.98;35.44;100064.03;5375355;26;20060;-96
2024/04/14 09:37:12;;;;;;;5.82;2.22;;;;;;;23.67;35.52;100042.53;5409362;26;20005;-94
2024/04/14 09:39:38;;;;;;;5.22;2.08;;;;;;;23.76;35.55;100037.78;5402254;26;19995;-94
2024/04/14 09:42:06;;;;;;;4.57;2.28;;;;;;;23.83;34.08;100047.41;5374089;26;19995;-94
2024/04/14 09:44:37;;;;;;;3.45;2.22;;;;;;;23.92;34.17;100057.16;5404027;26;20425;-93
2024/04/14 09:47:06;;;;;;;3.05;1.77;;;;;;;23.89;32.71;100055.09;5371681;26;19997;-95
2024/04/14 09:49:32;;;;;;;4.63;1.52;;;;;;;23.89;32.88;100044.09;5369978;26;19998;-93
2024/04/14 09:52:00;;;;;;;7.47;2.05;;;;;;;23.94;33.82;100057.63;5369614;26;19999;-93
2024/04/14 09:54:29;;;;;;;3.60;2.00;;;;;;;23.76;34.06;100028.66;5371306;26;20009;-93
2024/04/14 09:56:54;;;;;;;6.50;1.95;;;;;;;23.84;34.04;100027.81;5370920;26;20051;-96
2024/04/14 09:59:23;;;;;;;5.40;2.40;;;;;;;23.88;34.32;100028.72;5399440;26;20033;-94
2024/04/14 10:01:48;;;;;;;2.80;1.85;;;;;;;23.96;33.57;100027.03;5370522;26;19990;-94
2024/04/14 10:04:14;;;;;;;5.28;1.85;;;;;;;23.91;33.86;100014.31;5374344;26;20003;-96
2024/04/14 10:06:44;;;;;;;3.15;1.92;;;;;;;23.96;33.77;100025.06;5400474;26;19997;-94
2024/04/14 10:09:11;;;;;;;6.57;2.33;;;;;;;24.08;34.04;100029.00;5369661;26;20019;-96
2024/04/14 10:11:36;;;;;;;4.45;2.10;;;;;;;23.99;33.80;100007.91;5399900;26;20378;-94
2024/04/14 10:14:02;;;;;;;3.72;1.80;;;;;;;24.15;34.50;100020.94;5369427;26;19994;-94
2024/04/14 10:16:28;;;;;;;5.20;2.38;;;;;;;24.13;33.94;99999.28;5369644;26;19998;-95
2024/04/14 10:19:02;;;;;;;3.63;2.10;;;;;;;24.29;33.25;100002.16;5400728;26;20023;-95
2024/04/14 10:21:29;;;;;;;5.53;2.22;;;;;;;24.36;33.46;99998.81;5400095;26;20005;-95
2024/04/14 10:23:56;;;;;;;4.95;2.47;;;;;;;24.47;32.72;100004.66;5401174;26;19991;-96
2024/04/14 10:26:21;;;;;;;3.92;2.13;;;;;;;24.41;32.68;99998.59;5401975;26;20021;-94
2024/04/14 10:28:56;;;;;;;4.63;2.20;;;;;;;24.46;32.53;100001.09;5370677;26;19995;-95
2024/04/14 10:31:29;;;;;;;4.63;2.00;;;;;;;24.40;32.76;99991.47;5372818;26;20007;-93
2024/04/14 10:34:05;;;;;;;2.75;1.98;;;;;;;24.28;31.85;99981.28;5401889;26;19995;-95
2024/04/14 10:36:31;;;;;;;4.93;1.83;;;;;;;24.28;31.62;99973.03;5463329;26;19995;-95
2024/04/14 10:38:56;;;;;;;5.03;1.92;;;;;;;24.38;31.53;99968.97;5403360;26;19995;-95
2024/04/14 10:41:22;;;;;;;4.72;2.05;;;;;;;24.53;30.93;99984.81;5402198;26;20036;-96
2024/04/14 10:43:48;;;;;;;2.72;1.60;;;;;;;24.64;30.74;99987.91;5372457;26;20010;-95
2024/04/14 10:46:14;;;;;;;3.78;1.77;;;;;;;24.72;31.09;99997.19;5403165;26;20044;-95
2024/04/14 10:48:44;;;;;;;4.50;1.77;;;;;;;24.67;30.69;99984.44;5372065;26;20068;-94
2024/04/14 10:51:13;;;;;;;2.58;1.60;;;;;;;24.69;29.81;99987.63;5372898;26;20019;-93
2024/04/14 10:53:41;;;;;;;3.63;1.92;;;;;;;24.73;30.25;99988.53;5373239;26;19999;-94
2024/04/14 10:56:12;;;;;;;2.75;1.60;;;;;;;24.64;29.20;99971.38;5375156;26;19986;-93
2024/04/14 10:58:38;;;;;;;5.55;2.00;;;;;;;24.67;29.61;99965.16;5402866;26;20002;-94
2024/04/14 11:01:04;;;;;;;4.70;1.83;;;;;;;24.69;30.19;99968.34;5372812;26;20032;-93
2024/04/14 11:03:30;;;;;;;3.05;1.65;;;;;;;24.66;30.06;99968.28;5377706;26;19993;-96
2024/04/14 11:05:56;;;;;;;4.60;1.85;;;;;;;24.67;30.31;99956.91;5433879;26;19991;-95
2024/04/14 11:08:27;;;;;;;2.40;1.70;;;;;;;24.72;30.48;99953.91;5362840;26;20002;-94
2024/04/14 11:10:52;;;;;;;4.03;1.83;;;;;;;24.85;29.79;99945.59;5373340;26;20444;-94
2024/04/14 11:13:19;;;;;;;5.43;1.58;;;;;;;24.77;28.98;99939.88;5372989;26;19999;-94
2024/04/14 11:15:48;;;;;;;3.60;1.70;;;;;;;24.92;30.02;99956.81;5373983;26;20462;-95
2024/04/14 11:18:13;;;;;;;3.75;1.60;;;;;;;24.93;28.23;99947.41;5433328;26;20035;-95
2024/04/14 11:20:48;;;;;;;6.60;1.90;;;;;;;24.91;29.16;99950.50;5401220;26;19998;-94
2024/04/14 11:23:14;;;;;;;3.60;1.80;;;;;;;24.98;28.61;99947.13;5372592;26;20026;-95